sensor_id;sensor_type;location;lat;lon;timestamp;temperature;humidity
20712;DHT22;10517;50.742;4.224;2024-02-28T00:00:12;3.70;99.90
20712;DHT22;10517;50.742;4.224;2024-02-28T00:02:37;3.60;99.90
20712;DHT22;10517;50.742;4.224;2024-02-28T00:05:03;3.60;99.90
20712;DHT22;10517;50.742;4.224;2024-02-28T00:07:29;3.60;99.90
20712;DHT22;10517;50.742;4.224;2024-02-28T00:09:55;3.60;99.90
20712;DHT22;10517;50.742;4.224;2024-02-28T00:12:23;3.70;99.90
20712;DHT22;10517;50.742;4.224;2024-02-28T00:14:52;3.70;99.90
20712;DHT22;10517;50.742;4.224;2024-02-28T00:17:17;3.70;99.90
20712;DHT22;10517;50.742;4.224;2024-02-28T00:19:43;3.60;99.90
20712;DHT22;10517;50.742;4.224;2024-02-28T00:22:09;3.60;99.90
20712;DHT22;10517;50.742;4.224;2024-02-28T00:24:34;3.60;99.90
20712;DHT22;10517;50.742;4.224;2024-02-28T00:27:00;3.50;99.90
20712;DHT22;10517;50.742;4.224;2024-02-28T00:29:26;3.60;99.90
20712;DHT22;10517;50.742;4.224;2024-02-28T00:31:52;3.60;99.90
20712;DHT22;10517;50.742;4.224;2024-02-28T00:34:17;3.50;99.90
20712;DHT22;10517;50.742;4.224;2024-02-28T00:36:43;3.50;99.90
20712;DHT22;10517;50.742;4.224;2024-02-28T00:39:10;3.50;99.90
20712;DHT22;10517;50.742;4.224;2024-02-28T00:41:35;3.40;99.90
20712;DHT22;10517;50.742;4.224;2024-02-28T00:44:02;3.30;99.90
20712;DHT22;10517;50.742;4.224;2024-02-28T00:46:28;3.30;99.90
20712;DHT22;10517;50.742;4.224;2024-02-28T00:48:53;3.20;99.90
20712;DHT22;10517;50.742;4.224;2024-02-28T00:51:19;3.20;99.90
20712;DHT22;10517;50.742;4.224;2024-02-28T00:53:44;3.20;99.90
20712;DHT22;10517;50.742;4.224;2024-02-28T00:56:10;3.20;99.90
20712;DHT22;10517;50.742;4.224;2024-02-28T00:58:35;3.10;99.90
20712;DHT22;10517;50.742;4.224;2024-02-28T01:01:01;3.00;99.90
20712;DHT22;10517;50.742;4.224;2024-02-28T01:03:26;3.00;99.90
20712;DHT22;10517;50.742;4.224;2024-02-28T01:05:52;2.90;99.90
20712;DHT22;10517;50.742;4.224;2024-02-28T01:08:18;2.90;99.90
20712;DHT22;10517;50.742;4.224;2024-02-28T01:10:44;2.80;99.90
20712;DHT22;10517;50.742;4.224;2024-02-28T01:13:10;2.80;99.90
20712;DHT22;10517;50.742;4.224;2024-02-28T01:15:35;2.70;99.90
20712;DHT22;10517;50.742;4.224;2024-02-28T01:18:01;2.80;99.90
20712;DHT22;10517;50.742;4.224;2024-02-28T01:20:26;2.80;99.90
20712;DHT22;10517;50.742;4.224;2024-02-28T01:22:52;2.80;99.90
20712;DHT22;10517;50.742;4.224;2024-02-28T01:25:17;2.80;99.90
20712;DHT22;10517;50.742;4.224;2024-02-28T01:27:44;2.70;99.90
20712;DHT22;10517;50.742;4.224;2024-02-28T01:30:10;2.70;99.90
20712;DHT22;10517;50.742;4.224;2024-02-28T01:32:35;2.60;99.90
20712;DHT22;10517;50.742;4.224;2024-02-28T01:35:02;2.60;99.90
20712;DHT22;10517;50.742;4.224;2024-02-28T01:37:28;2.60;99.90
20712;DHT22;10517;50.742;4.224;2024-02-28T01:39:54;2.60;99.90
20712;DHT22;10517;50.742;4.224;2024-02-28T01:42:21;2.60;99.90
20712;DHT22;10517;50.742;4.224;2024-02-28T01:44:48;2.60;99.90
20712;DHT22;10517;50.742;4.224;2024-02-28T01:47:17;2.50;99.90
20712;DHT22;10517;50.742;4.224;2024-02-28T01:49:44;2.60;99.90
20712;DHT22;10517;50.742;4.224;2024-02-28T01:52:11;2.50;99.90
20712;DHT22;10517;50.742;4.224;2024-02-28T01:54:38;2.50;99.90
20712;DHT22;10517;50.742;4.224;2024-02-28T01:57:05;2.50;99.90
20712;DHT22;10517;50.742;4.224;2024-02-28T01:59:31;2.50;99.90
20712;DHT22;10517;50.742;4.224;2024-02-28T02:01:57;2.50;99.90
20712;DHT22;10517;50.742;4.224;2024-02-28T02:04:24;2.50;99.90
20712;DHT22;10517;50.742;4.224;2024-02-28T02:06:49;2.40;99.90
20712;DHT22;10517;50.742;4.224;2024-02-28T02:09:16;2.40;99.90
20712;DHT22;10517;50.742;4.224;2024-02-28T02:11:42;2.30;99.90
20712;DHT22;10517;50.742;4.224;2024-02-28T02:14:07;2.30;99.90
20712;DHT22;10517;50.742;4.224;2024-02-28T02:16:33;2.30;99.90
20712;DHT22;10517;50.742;4.224;2024-02-28T02:18:59;2.30;99.90
20712;DHT22;10517;50.742;4.224;2024-02-28T02:21:30;2.30;99.90
20712;DHT22;10517;50.742;4.224;2024-02-28T02:23:55;2.30;99.90
20712;DHT22;10517;50.742;4.224;2024-02-28T02:26:21;2.30;99.90
20712;DHT22;10517;50.742;4.224;2024-02-28T02:28:47;2.30;99.90
20712;DHT22;10517;50.742;4.224;2024-02-28T02:31:13;2.30;99.90
20712;DHT22;10517;50.742;4.224;2024-02-28T02:33:39;2.30;99.90
20712;DHT22;10517;50.742;4.224;2024-02-28T02:36:05;2.30;99.90
20712;DHT22;10517;50.742;4.224;2024-02-28T02:38:30;2.40;99.90
20712;DHT22;10517;50.742;4.224;2024-02-28T02:40:56;2.30;99.90
20712;DHT22;10517;50.742;4.224;2024-02-28T02:43:22;2.40;99.90
20712;DHT22;10517;50.742;4.224;2024-02-28T02:45:47;2.40;99.90
20712;DHT22;10517;50.742;4.224;2024-02-28T02:48:13;2.50;99.90
20712;DHT22;10517;50.742;4.224;2024-02-28T02:50:38;2.50;99.90
20712;DHT22;10517;50.742;4.224;2024-02-28T02:53:04;2.40;99.90
20712;DHT22;10517;50.742;4.224;2024-02-28T02:55:30;2.50;99.90
20712;DHT22;10517;50.742;4.224;2024-02-28T02:57:56;2.50;99.90
20712;DHT22;10517;50.742;4.224;2024-02-28T03:00:21;2.50;99.90
20712;DHT22;10517;50.742;4.224;2024-02-28T03:02:47;2.50;99.90
20712;DHT22;10517;50.742;4.224;2024-02-28T03:05:13;2.50;99.90
20712;DHT22;10517;50.742;4.224;2024-02-28T03:07:39;2.50;99.90
20712;DHT22;10517;50.742;4.224;2024-02-28T03:10:05;2.50;99.90
20712;DHT22;10517;50.742;4.224;2024-02-28T03:12:31;2.40;99.90
20712;DHT22;10517;50.742;4.224;2024-02-28T03:14:56;2.30;99.90
20712;DHT22;10517;50.742;4.224;2024-02-28T03:17:22;2.30;99.90
20712;DHT22;10517;50.742;4.224;2024-02-28T03:19:48;2.20;99.90
20712;DHT22;10517;50.742;4.224;2024-02-28T03:22:13;2.20;99.90
20712;DHT22;10517;50.742;4.224;2024-02-28T03:24:39;2.10;99.90
20712;DHT22;10517;50.742;4.224;2024-02-28T03:27:04;2.10;99.90
20712;DHT22;10517;50.742;4.224;2024-02-28T03:29:30;2.10;99.90
20712;DHT22;10517;50.742;4.224;2024-02-28T03:31:57;2.10;99.90
20712;DHT22;10517;50.742;4.224;2024-02-28T03:34:23;2.10;99.90
20712;DHT22;10517;50.742;4.224;2024-02-28T03:36:49;2.00;99.90
20712;DHT22;10517;50.742;4.224;2024-02-28T03:39:14;2.10;99.90
20712;DHT22;10517;50.742;4.224;2024-02-28T03:41:40;2.10;99.90
20712;DHT22;10517;50.742;4.224;2024-02-28T03:44:05;2.10;99.90
20712;DHT22;10517;50.742;4.224;2024-02-28T03:46:31;2.00;99.90
20712;DHT22;10517;50.742;4.224;2024-02-28T03:48:56;2.10;99.90
20712;DHT22;10517;50.742;4.224;2024-02-28T03:51:23;2.30;99.90
20712;DHT22;10517;50.742;4.224;2024-02-28T03:53:48;2.30;99.90
20712;DHT22;10517;50.742;4.224;2024-02-28T03:56:22;2.30;99.90
20712;DHT22;10517;50.742;4.224;2024-02-28T03:58:48;2.30;99.90
20712;DHT22;10517;50.742;4.224;2024-02-28T04:01:13;2.20;99.90
20712;DHT22;10517;50.742;4.224;2024-02-28T04:03:39;2.30;99.90
20712;DHT22;10517;50.742;4.224;2024-02-28T04:06:04;2.30;99.90
20712;DHT22;10517;50.742;4.224;2024-02-28T04:08:30;2.30;99.90
20712;DHT22;10517;50.742;4.224;2024-02-28T04:10:56;2.40;99.90
20712;DHT22;10517;50.742;4.224;2024-02-28T04:13:21;2.50;99.90
20712;DHT22;10517;50.742;4.224;2024-02-28T04:15:47;2.40;99.90
20712;DHT22;10517;50.742;4.224;2024-02-28T04:18:12;2.50;99.90
20712;DHT22;10517;50.742;4.224;2024-02-28T04:20:38;2.50;99.90
20712;DHT22;10517;50.742;4.224;2024-02-28T04:23:04;2.50;99.90
20712;DHT22;10517;50.742;4.224;2024-02-28T04:25:29;2.30;99.90
20712;DHT22;10517;50.742;4.224;2024-02-28T04:27:55;2.40;99.90
20712;DHT22;10517;50.742;4.224;2024-02-28T04:30:22;2.40;99.90
20712;DHT22;10517;50.742;4.224;2024-02-28T04:32:47;2.40;99.90
20712;DHT22;10517;50.742;4.224;2024-02-28T04:35:13;2.40;99.90
20712;DHT22;10517;50.742;4.224;2024-02-28T04:37:40;2.40;99.90
20712;DHT22;10517;50.742;4.224;2024-02-28T04:40:06;2.30;99.90
20712;DHT22;10517;50.742;4.224;2024-02-28T04:42:32;2.40;99.90
20712;DHT22;10517;50.742;4.224;2024-02-28T04:44:58;2.40;99.90
20712;DHT22;10517;50.742;4.224;2024-02-28T04:47:24;2.40;99.90
20712;DHT22;10517;50.742;4.224;2024-02-28T04:49:49;2.50;99.90
20712;DHT22;10517;50.742;4.224;2024-02-28T04:52:15;2.60;99.90
20712;DHT22;10517;50.742;4.224;2024-02-28T04:54:40;2.80;99.90
20712;DHT22;10517;50.742;4.224;2024-02-28T04:57:06;2.90;99.90
20712;DHT22;10517;50.742;4.224;2024-02-28T04:59:31;2.90;99.90
20712;DHT22;10517;50.742;4.224;2024-02-28T05:01:57;2.90;99.90
20712;DHT22;10517;50.742;4.224;2024-02-28T05:04:23;2.80;99.90
20712;DHT22;10517;50.742;4.224;2024-02-28T05:06:49;2.90;99.90
20712;DHT22;10517;50.742;4.224;2024-02-28T05:09:15;2.90;99.90
20712;DHT22;10517;50.742;4.224;2024-02-28T05:11:40;2.90;99.90
20712;DHT22;10517;50.742;4.224;2024-02-28T05:14:06;3.00;99.90
20712;DHT22;10517;50.742;4.224;2024-02-28T05:16:32;3.10;99.90
20712;DHT22;10517;50.742;4.224;2024-02-28T05:18:57;3.20;99.90
20712;DHT22;10517;50.742;4.224;2024-02-28T05:21:23;3.40;99.90
20712;DHT22;10517;50.742;4.224;2024-02-28T05:23:48;3.40;99.90
20712;DHT22;10517;50.742;4.224;2024-02-28T05:26:14;3.40;99.90
20712;DHT22;10517;50.742;4.224;2024-02-28T05:28:39;3.50;99.90
20712;DHT22;10517;50.742;4.224;2024-02-28T05:31:21;3.60;99.90
20712;DHT22;10517;50.742;4.224;2024-02-28T05:33:47;3.80;99.90
20712;DHT22;10517;50.742;4.224;2024-02-28T05:36:12;3.70;99.90
20712;DHT22;10517;50.742;4.224;2024-02-28T05:38:38;3.80;99.90
20712;DHT22;10517;50.742;4.224;2024-02-28T05:41:03;3.80;99.90
20712;DHT22;10517;50.742;4.224;2024-02-28T05:43:29;3.70;99.90
20712;DHT22;10517;50.742;4.224;2024-02-28T05:45:55;3.60;99.90
20712;DHT22;10517;50.742;4.224;2024-02-28T05:48:20;3.70;99.90
20712;DHT22;10517;50.742;4.224;2024-02-28T05:50:46;3.70;99.90
20712;DHT22;10517;50.742;4.224;2024-02-28T05:53:11;3.80;99.90
20712;DHT22;10517;50.742;4.224;2024-02-28T05:55:37;3.90;99.90
20712;DHT22;10517;50.742;4.224;2024-02-28T05:58:02;4.00;99.90
20712;DHT22;10517;50.742;4.224;2024-02-28T06:00:28;4.00;99.90
20712;DHT22;10517;50.742;4.224;2024-02-28T06:02:54;4.10;99.90
20712;DHT22;10517;50.742;4.224;2024-02-28T06:05:19;4.10;99.90
20712;DHT22;10517;50.742;4.224;2024-02-28T06:07:45;4.20;99.90
20712;DHT22;10517;50.742;4.224;2024-02-28T06:10:11;4.20;99.90
20712;DHT22;10517;50.742;4.224;2024-02-28T06:12:37;4.30;99.90
20712;DHT22;10517;50.742;4.224;2024-02-28T06:15:03;4.30;99.90
20712;DHT22;10517;50.742;4.224;2024-02-28T06:17:29;4.30;99.90
20712;DHT22;10517;50.742;4.224;2024-02-28T06:19:55;4.40;99.90
20712;DHT22;10517;50.742;4.224;2024-02-28T06:22:20;4.50;99.90
20712;DHT22;10517;50.742;4.224;2024-02-28T06:24:46;4.40;99.90
20712;DHT22;10517;50.742;4.224;2024-02-28T06:27:11;4.50;99.90
20712;DHT22;10517;50.742;4.224;2024-02-28T06:29:41;4.60;99.90
20712;DHT22;10517;50.742;4.224;2024-02-28T06:32:07;4.60;99.90
20712;DHT22;10517;50.742;4.224;2024-02-28T06:34:33;4.60;99.90
20712;DHT22;10517;50.742;4.224;2024-02-28T06:36:59;4.60;99.90
20712;DHT22;10517;50.742;4.224;2024-02-28T06:39:24;4.60;99.90
20712;DHT22;10517;50.742;4.224;2024-02-28T06:41:50;4.50;99.90
20712;DHT22;10517;50.742;4.224;2024-02-28T06:44:18;4.50;99.90
20712;DHT22;10517;50.742;4.224;2024-02-28T06:46:44;4.60;99.90
20712;DHT22;10517;50.742;4.224;2024-02-28T06:49:09;4.60;99.90
20712;DHT22;10517;50.742;4.224;2024-02-28T06:51:35;4.60;99.90
20712;DHT22;10517;50.742;4.224;2024-02-28T06:54:01;4.80;99.90
20712;DHT22;10517;50.742;4.224;2024-02-28T06:56:26;4.80;99.90
20712;DHT22;10517;50.742;4.224;2024-02-28T06:58:52;5.00;99.90
20712;DHT22;10517;50.742;4.224;2024-02-28T07:01:17;5.00;99.90
20712;DHT22;10517;50.742;4.224;2024-02-28T07:03:43;5.00;99.90
20712;DHT22;10517;50.742;4.224;2024-02-28T07:06:09;5.10;99.90
20712;DHT22;10517;50.742;4.224;2024-02-28T07:08:35;5.10;99.90
20712;DHT22;10517;50.742;4.224;2024-02-28T07:11:00;5.10;99.90
20712;DHT22;10517;50.742;4.224;2024-02-28T07:13:26;5.10;99.90
20712;DHT22;10517;50.742;4.224;2024-02-28T07:15:52;5.10;99.90
20712;DHT22;10517;50.742;4.224;2024-02-28T07:18:20;5.20;99.90
20712;DHT22;10517;50.742;4.224;2024-02-28T07:20:46;5.30;99.90
20712;DHT22;10517;50.742;4.224;2024-02-28T07:23:11;5.50;99.90
20712;DHT22;10517;50.742;4.224;2024-02-28T07:25:37;5.40;99.90
20712;DHT22;10517;50.742;4.224;2024-02-28T07:28:03;5.40;99.90
20712;DHT22;10517;50.742;4.224;2024-02-28T07:30:30;5.40;99.90
20712;DHT22;10517;50.742;4.224;2024-02-28T07:32:56;5.50;99.90
20712;DHT22;10517;50.742;4.224;2024-02-28T07:35:22;5.50;99.90
20712;DHT22;10517;50.742;4.224;2024-02-28T07:37:49;5.50;99.90
20712;DHT22;10517;50.742;4.224;2024-02-28T07:40:14;5.50;99.90
20712;DHT22;10517;50.742;4.224;2024-02-28T07:42:40;5.50;99.90
20712;DHT22;10517;50.742;4.224;2024-02-28T07:45:06;5.50;99.90
20712;DHT22;10517;50.742;4.224;2024-02-28T07:47:34;5.50;99.90
20712;DHT22;10517;50.742;4.224;2024-02-28T07:49:59;5.50;99.90
20712;DHT22;10517;50.742;4.224;2024-02-28T07:52:25;5.50;99.90
20712;DHT22;10517;50.742;4.224;2024-02-28T07:54:50;5.60;99.90
20712;DHT22;10517;50.742;4.224;2024-02-28T07:57:16;5.70;99.90
20712;DHT22;10517;50.742;4.224;2024-02-28T07:59:42;5.80;99.90
20712;DHT22;10517;50.742;4.224;2024-02-28T08:02:08;5.90;99.90
20712;DHT22;10517;50.742;4.224;2024-02-28T08:04:35;6.00;99.90
20712;DHT22;10517;50.742;4.224;2024-02-28T08:07:00;6.00;99.90
20712;DHT22;10517;50.742;4.224;2024-02-28T08:09:26;6.10;99.90
20712;DHT22;10517;50.742;4.224;2024-02-28T08:11:51;6.20;99.90
20712;DHT22;10517;50.742;4.224;2024-02-28T08:14:17;6.30;99.90
20712;DHT22;10517;50.742;4.224;2024-02-28T08:16:43;6.20;99.90
20712;DHT22;10517;50.742;4.224;2024-02-28T08:19:09;6.30;99.90
20712;DHT22;10517;50.742;4.224;2024-02-28T08:21:35;6.30;99.90
20712;DHT22;10517;50.742;4.224;2024-02-28T08:24:00;6.40;99.90
20712;DHT22;10517;50.742;4.224;2024-02-28T08:26:30;6.40;99.90
20712;DHT22;10517;50.742;4.224;2024-02-28T08:28:55;6.40;99.90
20712;DHT22;10517;50.742;4.224;2024-02-28T08:31:21;6.40;99.90
20712;DHT22;10517;50.742;4.224;2024-02-28T08:33:46;6.50;99.90
20712;DHT22;10517;50.742;4.224;2024-02-28T08:36:12;6.60;99.90
20712;DHT22;10517;50.742;4.224;2024-02-28T08:38:38;6.60;99.90
20712;DHT22;10517;50.742;4.224;2024-02-28T08:41:04;6.60;99.90
20712;DHT22;10517;50.742;4.224;2024-02-28T08:43:30;6.70;99.90
20712;DHT22;10517;50.742;4.224;2024-02-28T08:45:56;6.80;99.90
20712;DHT22;10517;50.742;4.224;2024-02-28T08:48:21;6.80;99.90
20712;DHT22;10517;50.742;4.224;2024-02-28T08:50:48;7.00;99.90
20712;DHT22;10517;50.742;4.224;2024-02-28T08:53:14;7.20;99.90
20712;DHT22;10517;50.742;4.224;2024-02-28T08:55:39;7.40;99.90
20712;DHT22;10517;50.742;4.224;2024-02-28T08:58:05;7.50;99.90
20712;DHT22;10517;50.742;4.224;2024-02-28T09:00:30;7.40;99.90
20712;DHT22;10517;50.742;4.224;2024-02-28T09:02:56;7.50;99.90
20712;DHT22;10517;50.742;4.224;2024-02-28T09:05:23;7.60;99.90
20712;DHT22;10517;50.742;4.224;2024-02-28T09:07:49;7.80;99.90
20712;DHT22;10517;50.742;4.224;2024-02-28T09:10:17;7.90;99.90
20712;DHT22;10517;50.742;4.224;2024-02-28T09:12:46;7.90;99.90
20712;DHT22;10517;50.742;4.224;2024-02-28T09:15:12;7.80;99.90
20712;DHT22;10517;50.742;4.224;2024-02-28T09:17:38;7.80;99.90
20712;DHT22;10517;50.742;4.224;2024-02-28T09:20:04;7.80;99.90
20712;DHT22;10517;50.742;4.224;2024-02-28T09:22:31;7.90;99.90
20712;DHT22;10517;50.742;4.224;2024-02-28T09:24:57;8.00;99.90
20712;DHT22;10517;50.742;4.224;2024-02-28T09:27:22;8.00;99.90
20712;DHT22;10517;50.742;4.224;2024-02-28T09:29:50;8.20;99.90
20712;DHT22;10517;50.742;4.224;2024-02-28T09:32:15;8.00;99.90
20712;DHT22;10517;50.742;4.224;2024-02-28T09:34:41;8.00;99.90
20712;DHT22;10517;50.742;4.224;2024-02-28T09:37:06;8.00;99.90
20712;DHT22;10517;50.742;4.224;2024-02-28T09:39:32;8.10;99.90
20712;DHT22;10517;50.742;4.224;2024-02-28T09:41:57;7.90;99.90
20712;DHT22;10517;50.742;4.224;2024-02-28T09:44:23;8.00;99.90
20712;DHT22;10517;50.742;4.224;2024-02-28T09:46:52;8.20;99.90
20712;DHT22;10517;50.742;4.224;2024-02-28T09:49:18;8.20;99.90
20712;DHT22;10517;50.742;4.224;2024-02-28T09:51:48;8.30;99.90
20712;DHT22;10517;50.742;4.224;2024-02-28T09:54:18;8.30;99.90
20712;DHT22;10517;50.742;4.224;2024-02-28T09:56:43;8.40;99.90
20712;DHT22;10517;50.742;4.224;2024-02-28T09:59:10;8.50;99.90
20712;DHT22;10517;50.742;4.224;2024-02-28T10:01:42;8.60;99.90
20712;DHT22;10517;50.742;4.224;2024-02-28T10:04:09;8.70;99.90
20712;DHT22;10517;50.742;4.224;2024-02-28T10:06:36;8.80;99.90
20712;DHT22;10517;50.742;4.224;2024-02-28T10:09:01;8.80;99.90
20712;DHT22;10517;50.742;4.224;2024-02-28T10:11:28;8.90;99.90
20712;DHT22;10517;50.742;4.224;2024-02-28T10:13:54;9.00;99.90
20712;DHT22;10517;50.742;4.224;2024-02-28T10:16:20;9.00;99.90
20712;DHT22;10517;50.742;4.224;2024-02-28T10:18:46;9.10;99.90
20712;DHT22;10517;50.742;4.224;2024-02-28T10:21:12;9.20;99.90
20712;DHT22;10517;50.742;4.224;2024-02-28T10:23:40;9.50;99.90
20712;DHT22;10517;50.742;4.224;2024-02-28T10:26:09;9.70;99.90
20712;DHT22;10517;50.742;4.224;2024-02-28T10:28:37;9.80;99.90
20712;DHT22;10517;50.742;4.224;2024-02-28T10:31:04;9.90;99.90
20712;DHT22;10517;50.742;4.224;2024-02-28T10:33:30;10.00;99.90
20712;DHT22;10517;50.742;4.224;2024-02-28T10:35:56;10.30;99.90
20712;DHT22;10517;50.742;4.224;2024-02-28T10:38:22;10.60;99.90
20712;DHT22;10517;50.742;4.224;2024-02-28T10:40:48;10.60;99.90
20712;DHT22;10517;50.742;4.224;2024-02-28T10:43:16;10.80;99.90
20712;DHT22;10517;50.742;4.224;2024-02-28T10:45:42;11.00;99.90
20712;DHT22;10517;50.742;4.224;2024-02-28T10:48:08;11.30;99.90
20712;DHT22;10517;50.742;4.224;2024-02-28T10:50:35;11.50;99.90
20712;DHT22;10517;50.742;4.224;2024-02-28T10:53:02;11.70;99.90
20712;DHT22;10517;50.742;4.224;2024-02-28T10:55:34;11.90;99.90
20712;DHT22;10517;50.742;4.224;2024-02-28T10:58:07;11.90;99.90
20712;DHT22;10517;50.742;4.224;2024-02-28T11:00:35;12.00;99.90
20712;DHT22;10517;50.742;4.224;2024-02-28T11:03:02;11.80;99.90
20712;DHT22;10517;50.742;4.224;2024-02-28T11:05:37;11.80;99.90
20712;DHT22;10517;50.742;4.224;2024-02-28T11:08:10;11.80;99.90
20712;DHT22;10517;50.742;4.224;2024-02-28T11:10:42;11.80;99.90
20712;DHT22;10517;50.742;4.224;2024-02-28T11:13:08;11.80;99.90
20712;DHT22;10517;50.742;4.224;2024-02-28T11:15:36;11.70;99.90
20712;DHT22;10517;50.742;4.224;2024-02-28T11:18:08;11.80;99.90
20712;DHT22;10517;50.742;4.224;2024-02-28T11:20:35;11.70;99.90
20712;DHT22;10517;50.742;4.224;2024-02-28T11:23:00;11.70;99.90
20712;DHT22;10517;50.742;4.224;2024-02-28T11:25:26;11.80;99.90
20712;DHT22;10517;50.742;4.224;2024-02-28T11:27:52;11.70;99.90
20712;DHT22;10517;50.742;4.224;2024-02-28T11:30:19;11.50;99.90
20712;DHT22;10517;50.742;4.224;2024-02-28T11:32:45;11.50;99.90
20712;DHT22;10517;50.742;4.224;2024-02-28T11:35:10;11.50;99.90
20712;DHT22;10517;50.742;4.224;2024-02-28T11:37:38;11.60;99.90
20712;DHT22;10517;50.742;4.224;2024-02-28T11:40:08;11.80;99.90
20712;DHT22;10517;50.742;4.224;2024-02-28T11:42:38;12.00;99.90
20712;DHT22;10517;50.742;4.224;2024-02-28T11:45:04;12.30;99.90
20712;DHT22;10517;50.742;4.224;2024-02-28T11:47:31;12.40;99.90
20712;DHT22;10517;50.742;4.224;2024-02-28T11:49:59;12.50;99.90
20712;DHT22;10517;50.742;4.224;2024-02-28T11:52:26;12.50;99.90
20712;DHT22;10517;50.742;4.224;2024-02-28T11:54:51;12.50;99.90
20712;DHT22;10517;50.742;4.224;2024-02-28T11:57:18;12.50;99.90
20712;DHT22;10517;50.742;4.224;2024-02-28T11:59:44;12.50;99.90
20712;DHT22;10517;50.742;4.224;2024-02-28T12:02:14;12.40;99.90
20712;DHT22;10517;50.742;4.224;2024-02-28T12:04:41;12.50;99.90
20712;DHT22;10517;50.742;4.224;2024-02-28T12:07:08;12.80;99.90
20712;DHT22;10517;50.742;4.224;2024-02-28T12:09:34;12.80;99.90
20712;DHT22;10517;50.742;4.224;2024-02-28T12:12:01;12.60;99.90
20712;DHT22;10517;50.742;4.224;2024-02-28T12:14:27;12.40;99.90
20712;DHT22;10517;50.742;4.224;2024-02-28T12:16:52;12.40;99.90
20712;DHT22;10517;50.742;4.224;2024-02-28T12:19:18;12.20;99.90
20712;DHT22;10517;50.742;4.224;2024-02-28T12:21:46;11.70;99.90
20712;DHT22;10517;50.742;4.224;2024-02-28T12:24:13;11.50;99.90
20712;DHT22;10517;50.742;4.224;2024-02-28T12:26:39;11.60;99.90
20712;DHT22;10517;50.742;4.224;2024-02-28T12:29:05;11.50;99.90
20712;DHT22;10517;50.742;4.224;2024-02-28T12:31:30;11.50;99.90
20712;DHT22;10517;50.742;4.224;2024-02-28T12:33:56;11.40;99.90
20712;DHT22;10517;50.742;4.224;2024-02-28T12:36:22;11.40;99.90
20712;DHT22;10517;50.742;4.224;2024-02-28T12:38:47;11.30;99.90
20712;DHT22;10517;50.742;4.224;2024-02-28T12:41:13;11.20;99.90
20712;DHT22;10517;50.742;4.224;2024-02-28T12:43:39;11.20;99.90
20712;DHT22;10517;50.742;4.224;2024-02-28T12:46:05;11.30;99.90
20712;DHT22;10517;50.742;4.224;2024-02-28T12:48:38;11.10;99.90
20712;DHT22;10517;50.742;4.224;2024-02-28T12:51:04;11.10;99.90
20712;DHT22;10517;50.742;4.224;2024-02-28T12:53:31;11.10;99.90
20712;DHT22;10517;50.742;4.224;2024-02-28T12:55:56;11.10;99.90
20712;DHT22;10517;50.742;4.224;2024-02-28T12:58:22;11.20;99.90
20712;DHT22;10517;50.742;4.224;2024-02-28T13:00:49;11.30;99.90
20712;DHT22;10517;50.742;4.224;2024-02-28T13:03:15;11.20;99.90
20712;DHT22;10517;50.742;4.224;2024-02-28T13:05:41;11.20;99.90
20712;DHT22;10517;50.742;4.224;2024-02-28T13:08:07;11.20;99.90
20712;DHT22;10517;50.742;4.224;2024-02-28T13:10:33;11.40;99.90
20712;DHT22;10517;50.742;4.224;2024-02-28T13:13:02;11.50;99.90
20712;DHT22;10517;50.742;4.224;2024-02-28T13:15:27;11.50;99.90
20712;DHT22;10517;50.742;4.224;2024-02-28T13:17:53;11.50;99.90
20712;DHT22;10517;50.742;4.224;2024-02-28T13:20:18;11.40;99.90
20712;DHT22;10517;50.742;4.224;2024-02-28T13:22:44;11.40;99.90
20712;DHT22;10517;50.742;4.224;2024-02-28T13:25:11;11.50;99.90
20712;DHT22;10517;50.742;4.224;2024-02-28T13:27:39;11.60;99.90
20712;DHT22;10517;50.742;4.224;2024-02-28T13:30:05;11.50;99.90
20712;DHT22;10517;50.742;4.224;2024-02-28T13:32:31;11.60;99.90
20712;DHT22;10517;50.742;4.224;2024-02-28T13:34:57;11.60;99.90
20712;DHT22;10517;50.742;4.224;2024-02-28T13:37:23;11.70;99.90
20712;DHT22;10517;50.742;4.224;2024-02-28T13:39:49;11.90;99.90
20712;DHT22;10517;50.742;4.224;2024-02-28T13:42:17;12.00;99.90
20712;DHT22;10517;50.742;4.224;2024-02-28T13:44:45;12.00;99.90
20712;DHT22;10517;50.742;4.224;2024-02-28T13:47:12;12.00;99.90
20712;DHT22;10517;50.742;4.224;2024-02-28T13:49:39;12.10;99.90
20712;DHT22;10517;50.742;4.224;2024-02-28T13:52:05;11.90;99.90
20712;DHT22;10517;50.742;4.224;2024-02-28T13:54:30;11.90;99.90
20712;DHT22;10517;50.742;4.224;2024-02-28T13:56:57;11.90;99.90
20712;DHT22;10517;50.742;4.224;2024-02-28T13:59:23;11.80;99.90
20712;DHT22;10517;50.742;4.224;2024-02-28T14:01:49;11.70;99.90
20712;DHT22;10517;50.742;4.224;2024-02-28T14:04:15;11.90;99.90
20712;DHT22;10517;50.742;4.224;2024-02-28T14:06:41;12.10;99.90
20712;DHT22;10517;50.742;4.224;2024-02-28T14:09:06;12.30;99.90
20712;DHT22;10517;50.742;4.224;2024-02-28T14:11:32;12.50;99.90
20712;DHT22;10517;50.742;4.224;2024-02-28T14:13:58;12.90;99.90
20712;DHT22;10517;50.742;4.224;2024-02-28T14:16:24;13.10;99.90
20712;DHT22;10517;50.742;4.224;2024-02-28T14:18:49;13.00;99.90
20712;DHT22;10517;50.742;4.224;2024-02-28T14:21:15;12.60;99.90
20712;DHT22;10517;50.742;4.224;2024-02-28T14:23:40;12.40;99.90
20712;DHT22;10517;50.742;4.224;2024-02-28T14:26:06;12.40;99.90
20712;DHT22;10517;50.742;4.224;2024-02-28T14:28:32;12.60;99.90
20712;DHT22;10517;50.742;4.224;2024-02-28T14:30:58;12.30;99.90
20712;DHT22;10517;50.742;4.224;2024-02-28T14:33:23;12.30;99.90
20712;DHT22;10517;50.742;4.224;2024-02-28T14:35:49;12.00;99.90
20712;DHT22;10517;50.742;4.224;2024-02-28T14:38:14;11.90;99.90
20712;DHT22;10517;50.742;4.224;2024-02-28T14:40:40;11.70;99.90
20712;DHT22;10517;50.742;4.224;2024-02-28T14:43:07;11.60;99.90
20712;DHT22;10517;50.742;4.224;2024-02-28T14:45:32;11.70;99.90
20712;DHT22;10517;50.742;4.224;2024-02-28T14:47:58;11.70;99.90
20712;DHT22;10517;50.742;4.224;2024-02-28T14:50:23;11.70;99.90
20712;DHT22;10517;50.742;4.224;2024-02-28T14:52:49;11.70;99.90
20712;DHT22;10517;50.742;4.224;2024-02-28T14:55:15;11.90;99.90
20712;DHT22;10517;50.742;4.224;2024-02-28T14:57:40;11.80;99.90
20712;DHT22;10517;50.742;4.224;2024-02-28T15:00:07;11.70;99.90
20712;DHT22;10517;50.742;4.224;2024-02-28T15:02:42;11.80;99.90
20712;DHT22;10517;50.742;4.224;2024-02-28T15:05:09;12.20;99.90
20712;DHT22;10517;50.742;4.224;2024-02-28T15:07:35;12.40;99.90
20712;DHT22;10517;50.742;4.224;2024-02-28T15:10:05;12.30;99.90
20712;DHT22;10517;50.742;4.224;2024-02-28T15:12:31;12.30;99.90
20712;DHT22;10517;50.742;4.224;2024-02-28T15:15:02;12.20;99.90
20712;DHT22;10517;50.742;4.224;2024-02-28T15:17:28;12.30;99.90
20712;DHT22;10517;50.742;4.224;2024-02-28T15:19:53;13.20;99.90
20712;DHT22;10517;50.742;4.224;2024-02-28T15:22:19;14.40;99.90
20712;DHT22;10517;50.742;4.224;2024-02-28T15:24:45;15.30;99.90
20712;DHT22;10517;50.742;4.224;2024-02-28T15:27:10;16.40;99.90
20712;DHT22;10517;50.742;4.224;2024-02-28T15:29:36;17.70;99.90
20712;DHT22;10517;50.742;4.224;2024-02-28T15:32:02;18.80;99.90